Aviation Digital Data Service (ADDS)

Output produced by METARs form (2120 UTC 16 February 2019)
found at http://www.aviationweather.gov/metar/data/
 
METAR text: PTRO 162050Z 03005KT 14SM SCT016TCU BKN120 BKN300 24/22 A2991 RMK TCU ALQDS
Conditions at: PTRO (BABELTHUAP/KOROR, FM) observed 2050 UTC 16 February 2019
Temperature: 24.0°C (75°F)
Dewpoint: 22.0°C (72°F) [RH = 89%]
Pressure (altimeter): 29.91 inches Hg (1013.0 mb)
Winds: from the NNE (30 degrees) at 6 MPH (5 knots; 2.6 m/s)
Visibility: 14 miles (23 km)
Ceiling: 12000 feet AGL
Clouds: scattered clouds at 1600 feet AGL
broken clouds at 12000 feet AGL
broken clouds at 30000 feet AGL
Weather: no significant weather observed at this time

METAR text: PTRO 161950Z 03005KT 14SM SCT016TCU BKN120 BKN300 23/22 A2989 RMK TCU ALQDS
Conditions at: PTRO (BABELTHUAP/KOROR, FM) observed 1950 UTC 16 February 2019
Temperature: 23.0°C (73°F)
Dewpoint: 22.0°C (72°F) [RH = 94%]
Pressure (altimeter): 29.89 inches Hg (1012.3 mb)
Winds: from the NNE (30 degrees) at 6 MPH (5 knots; 2.6 m/s)
Visibility: 14 miles (23 km)
Ceiling: 12000 feet AGL
Clouds: scattered clouds at 1600 feet AGL
broken clouds at 12000 feet AGL
broken clouds at 30000 feet AGL
Weather: no significant weather observed at this time

METAR text: PTRO 161850Z 02007G11KT 14SM SCT016TCU BKN120 OVC300 23/22 A2988 RMK TCU ALQDS
Conditions at: PTRO (BABELTHUAP/KOROR, FM) observed 1850 UTC 16 February 2019
Temperature: 23.0°C (73°F)
Dewpoint: 22.0°C (72°F) [RH = 94%]
Pressure (altimeter): 29.88 inches Hg (1011.9 mb)
Winds: from the NNE (20 degrees) at 8 MPH (7 knots; 3.6 m/s)
gusting to 13 MPH (11 knots; 5.7 m/s)
Visibility: 14 miles (23 km)
Ceiling: 12000 feet AGL
Clouds: scattered clouds at 1600 feet AGL
broken clouds at 12000 feet AGL
overcast cloud deck at 30000 feet AGL
Weather: no significant weather observed at this time

METAR text: PTRO 161750Z 03009G16KT 14SM SCT016TCU BKN120 OVC300 24/22 A2989 RMK TCU ALQDS
Conditions at: PTRO (BABELTHUAP/KOROR, FM) observed 1750 UTC 16 February 2019
Temperature: 24.0°C (75°F)
Dewpoint: 22.0°C (72°F) [RH = 89%]
Pressure (altimeter): 29.89 inches Hg (1012.3 mb)
Winds: from the NNE (30 degrees) at 10 MPH (9 knots; 4.6 m/s)
gusting to 18 MPH (16 knots; 8.2 m/s)
Visibility: 14 miles (23 km)
Ceiling: 12000 feet AGL
Clouds: scattered clouds at 1600 feet AGL
broken clouds at 12000 feet AGL
overcast cloud deck at 30000 feet AGL
Weather: no significant weather observed at this time

METAR text: PTRO 161650Z 05006KT 14SM SCT016TCU BKN120 OVC300 24/23 A2990 RMK TCU ALQDS
Conditions at: PTRO (BABELTHUAP/KOROR, FM) observed 1650 UTC 16 February 2019
Temperature: 24.0°C (75°F)
Dewpoint: 23.0°C (73°F) [RH = 94%]
Pressure (altimeter): 29.90 inches Hg (1012.6 mb)
Winds: from the NE (50 degrees) at 7 MPH (6 knots; 3.1 m/s)
Visibility: 14 miles (23 km)
Ceiling: 12000 feet AGL
Clouds: scattered clouds at 1600 feet AGL
broken clouds at 12000 feet AGL
overcast cloud deck at 30000 feet AGL
Weather: no significant weather observed at this time

METAR text: PTRO 161550Z 02003KT 15SM SCT016 SCT120 BKN300 25/23 A2991
Conditions at: PTRO (BABELTHUAP/KOROR, FM) observed 1550 UTC 16 February 2019
Temperature: 25.0°C (77°F)
Dewpoint: 23.0°C (73°F) [RH = 89%]
Pressure (altimeter): 29.91 inches Hg (1013.0 mb)
Winds: from the NNE (20 degrees) at 3 MPH (3 knots; 1.5 m/s)
Visibility: 15 miles (24 km)
Ceiling: 30000 feet AGL
Clouds: scattered clouds at 1600 feet AGL
scattered clouds at 12000 feet AGL
broken clouds at 30000 feet AGL
Weather: no significant weather observed at this time

METAR text: PTRO 161452Z 02005KT 15SM SCT016 BKN300 25/23 A2992
Conditions at: PTRO (BABELTHUAP/KOROR, FM) observed 1452 UTC 16 February 2019
Temperature: 25.0°C (77°F)
Dewpoint: 23.0°C (73°F) [RH = 89%]
Pressure (altimeter): 29.92 inches Hg (1013.3 mb)
Winds: from the NNE (20 degrees) at 6 MPH (5 knots; 2.6 m/s)
Visibility: 15 miles (24 km)
Ceiling: 30000 feet AGL
Clouds: scattered clouds at 1600 feet AGL
broken clouds at 30000 feet AGL
Weather: no significant weather observed at this time

METAR text: PTRO 161351Z 02004KT 15SM SCT016 BKN300 25/23 A2992
Conditions at: PTRO (BABELTHUAP/KOROR, FM) observed 1351 UTC 16 February 2019
Temperature: 25.0°C (77°F)
Dewpoint: 23.0°C (73°F) [RH = 89%]
Pressure (altimeter): 29.92 inches Hg (1013.3 mb)
Winds: from the NNE (20 degrees) at 5 MPH (4 knots; 2.1 m/s)
Visibility: 15 miles (24 km)
Ceiling: 30000 feet AGL
Clouds: scattered clouds at 1600 feet AGL
broken clouds at 30000 feet AGL
Weather: no significant weather observed at this time

METAR text: PTRO 161250Z 03005KT 15SM SCT016 BKN120 BKN300 25/23 A2992
Conditions at: PTRO (BABELTHUAP/KOROR, FM) observed 1250 UTC 16 February 2019
Temperature: 25.0°C (77°F)
Dewpoint: 23.0°C (73°F) [RH = 89%]
Pressure (altimeter): 29.92 inches Hg (1013.3 mb)
Winds: from the NNE (30 degrees) at 6 MPH (5 knots; 2.6 m/s)
Visibility: 15 miles (24 km)
Ceiling: 12000 feet AGL
Clouds: scattered clouds at 1600 feet AGL
broken clouds at 12000 feet AGL
broken clouds at 30000 feet AGL
Weather: no significant weather observed at this time

METAR text: PTRO 161152Z 03004KT 15SM SCT016 BKN120 BKN300 26/23 A2992
Conditions at: PTRO (BABELTHUAP/KOROR, FM) observed 1152 UTC 16 February 2019
Temperature: 26.0°C (79°F)
Dewpoint: 23.0°C (73°F) [RH = 84%]
Pressure (altimeter): 29.92 inches Hg (1013.3 mb)
Winds: from the NNE (30 degrees) at 5 MPH (4 knots; 2.1 m/s)
Visibility: 15 miles (24 km)
Ceiling: 12000 feet AGL
Clouds: scattered clouds at 1600 feet AGL
broken clouds at 12000 feet AGL
broken clouds at 30000 feet AGL
Weather: no significant weather observed at this time

METAR text: PTRO 161055Z 02005KT 15SM SCT016 BKN120 BKN300 26/23 A2991
Conditions at: PTRO (BABELTHUAP/KOROR, FM) observed 1055 UTC 16 February 2019
Temperature: 26.0°C (79°F)
Dewpoint: 23.0°C (73°F) [RH = 84%]
Pressure (altimeter): 29.91 inches Hg (1013.0 mb)
Winds: from the NNE (20 degrees) at 6 MPH (5 knots; 2.6 m/s)
Visibility: 15 miles (24 km)
Ceiling: 12000 feet AGL
Clouds: scattered clouds at 1600 feet AGL
broken clouds at 12000 feet AGL
broken clouds at 30000 feet AGL
Weather: no significant weather observed at this time

METAR text: PTRO 160953Z 04005KT 15SM SCT016 BKN120 BKN300 26/23 A2989
Conditions at: PTRO (BABELTHUAP/KOROR, FM) observed 0953 UTC 16 February 2019
Temperature: 26.0°C (79°F)
Dewpoint: 23.0°C (73°F) [RH = 84%]
Pressure (altimeter): 29.89 inches Hg (1012.3 mb)
Winds: from the NE (40 degrees) at 6 MPH (5 knots; 2.6 m/s)
Visibility: 15 miles (24 km)
Ceiling: 12000 feet AGL
Clouds: scattered clouds at 1600 feet AGL
broken clouds at 12000 feet AGL
broken clouds at 30000 feet AGL
Weather: no significant weather observed at this time

METAR text: PTRO 160851Z 06005KT 15SM FEW010 SCT016 BKN120 BKN300 27/23 A2987
Conditions at: PTRO (BABELTHUAP/KOROR, FM) observed 0851 UTC 16 February 2019
Temperature: 27.0°C (81°F)
Dewpoint: 23.0°C (73°F) [RH = 79%]
Pressure (altimeter): 29.87 inches Hg (1011.6 mb)
Winds: from the ENE (60 degrees) at 6 MPH (5 knots; 2.6 m/s)
Visibility: 15 miles (24 km)
Ceiling: 12000 feet AGL
Clouds: few clouds at 1000 feet AGL
scattered clouds at 1600 feet AGL
broken clouds at 12000 feet AGL
broken clouds at 30000 feet AGL
Weather: no significant weather observed at this time

METAR text: PTRO 160754Z 06011G18KT 15SM FEW010 SCT016 BKN120 BKN300 28/23 A2986
Conditions at: PTRO (BABELTHUAP/KOROR, FM) observed 0754 UTC 16 February 2019
Temperature: 28.0°C (82°F)
Dewpoint: 23.0°C (73°F) [RH = 74%]
Pressure (altimeter): 29.86 inches Hg (1011.3 mb)
Winds: from the ENE (60 degrees) at 13 MPH (11 knots; 5.7 m/s)
gusting to 21 MPH (18 knots; 9.3 m/s)
Visibility: 15 miles (24 km)
Ceiling: 12000 feet AGL
Clouds: few clouds at 1000 feet AGL
scattered clouds at 1600 feet AGL
broken clouds at 12000 feet AGL
broken clouds at 30000 feet AGL
Weather: no significant weather observed at this time

METAR text: PTRO 160650Z 07012G20KT 15SM SCT016TCU BKN120 BKN300 29/23 A2987 RMK TCU NW
Conditions at: PTRO (BABELTHUAP/KOROR, FM) observed 0650 UTC 16 February 2019
Temperature: 29.0°C (84°F)
Dewpoint: 23.0°C (73°F) [RH = 70%]
Pressure (altimeter): 29.87 inches Hg (1011.6 mb)
Winds: from the ENE (70 degrees) at 14 MPH (12 knots; 6.2 m/s)
gusting to 23 MPH (20 knots; 10.3 m/s)
Visibility: 15 miles (24 km)
Ceiling: 12000 feet AGL
Clouds: scattered clouds at 1600 feet AGL
broken clouds at 12000 feet AGL
broken clouds at 30000 feet AGL
Weather: no significant weather observed at this time

METAR text: PTRO 160550Z 06009G17KT 15SM SCT017TCU BKN120 BKN300 28/23 A2988 RMK TCU ALQDS
Conditions at: PTRO (BABELTHUAP/KOROR, FM) observed 0550 UTC 16 February 2019
Temperature: 28.0°C (82°F)
Dewpoint: 23.0°C (73°F) [RH = 74%]
Pressure (altimeter): 29.88 inches Hg (1011.9 mb)
Winds: from the ENE (60 degrees) at 10 MPH (9 knots; 4.6 m/s)
gusting to 20 MPH (17 knots; 8.7 m/s)
Visibility: 15 miles (24 km)
Ceiling: 12000 feet AGL
Clouds: scattered clouds at 1700 feet AGL
broken clouds at 12000 feet AGL
broken clouds at 30000 feet AGL
Weather: no significant weather observed at this time

METAR text: PTRO 160450Z 08010G20KT 15SM SCT017TCU BKN120 BKN300 29/24 A2989 RMK TCU SW AND NW-NE
Conditions at: PTRO (BABELTHUAP/KOROR, FM) observed 0450 UTC 16 February 2019
Temperature: 29.0°C (84°F)
Dewpoint: 24.0°C (75°F) [RH = 74%]
Pressure (altimeter): 29.89 inches Hg (1012.3 mb)
Winds: from the E (80 degrees) at 12 MPH (10 knots; 5.1 m/s)
gusting to 23 MPH (20 knots; 10.3 m/s)
Visibility: 15 miles (24 km)
Ceiling: 12000 feet AGL
Clouds: scattered clouds at 1700 feet AGL
broken clouds at 12000 feet AGL
broken clouds at 30000 feet AGL
Weather: no significant weather observed at this time

METAR text: PTRO 160350Z 05011G17KT 15SM SCT017TCU BKN120 BKN300 29/23 A2992 RMK TCU ALQDS
Conditions at: PTRO (BABELTHUAP/KOROR, FM) observed 0350 UTC 16 February 2019
Temperature: 29.0°C (84°F)
Dewpoint: 23.0°C (73°F) [RH = 70%]
Pressure (altimeter): 29.92 inches Hg (1013.3 mb)
Winds: from the NE (50 degrees) at 13 MPH (11 knots; 5.7 m/s)
gusting to 20 MPH (17 knots; 8.7 m/s)
Visibility: 15 miles (24 km)
Ceiling: 12000 feet AGL
Clouds: scattered clouds at 1700 feet AGL
broken clouds at 12000 feet AGL
broken clouds at 30000 feet AGL
Weather: no significant weather observed at this time

METAR text: PTRO 160250Z 05011G17KT 15SM SCT017TCU BKN120 BKN300 28/23 A2994 RMK TCU ALQDS
Conditions at: PTRO (BABELTHUAP/KOROR, FM) observed 0250 UTC 16 February 2019
Temperature: 28.0°C (82°F)
Dewpoint: 23.0°C (73°F) [RH = 74%]
Pressure (altimeter): 29.94 inches Hg (1014.0 mb)
Winds: from the NE (50 degrees) at 13 MPH (11 knots; 5.7 m/s)
gusting to 20 MPH (17 knots; 8.7 m/s)
Visibility: 15 miles (24 km)
Ceiling: 12000 feet AGL
Clouds: scattered clouds at 1700 feet AGL
broken clouds at 12000 feet AGL
broken clouds at 30000 feet AGL
Weather: no significant weather observed at this time

METAR text: PTRO 160150Z 05011G19KT 15SM SCT017TCU SCT120 BKN300 29/23 A2997 RMK TCU NE-SE
Conditions at: PTRO (BABELTHUAP/KOROR, FM) observed 0150 UTC 16 February 2019
Temperature: 29.0°C (84°F)
Dewpoint: 23.0°C (73°F) [RH = 70%]
Pressure (altimeter): 29.97 inches Hg (1015.0 mb)
Winds: from the NE (50 degrees) at 13 MPH (11 knots; 5.7 m/s)
gusting to 22 MPH (19 knots; 9.8 m/s)
Visibility: 15 miles (24 km)
Ceiling: 30000 feet AGL
Clouds: scattered clouds at 1700 feet AGL
scattered clouds at 12000 feet AGL
broken clouds at 30000 feet AGL
Weather: no significant weather observed at this time

METAR text: PTRO 160050Z 05007G15KT 15SM SCT017TCU SCT120 BKN300 27/22 A2999 RMK TCU N-E AND OHD
Conditions at: PTRO (BABELTHUAP/KOROR, FM) observed 0050 UTC 16 February 2019
Temperature: 27.0°C (81°F)
Dewpoint: 22.0°C (72°F) [RH = 74%]
Pressure (altimeter): 29.99 inches Hg (1015.7 mb)
Winds: from the NE (50 degrees) at 8 MPH (7 knots; 3.6 m/s)
gusting to 17 MPH (15 knots; 7.7 m/s)
Visibility: 15 miles (24 km)
Ceiling: 30000 feet AGL
Clouds: scattered clouds at 1700 feet AGL
scattered clouds at 12000 feet AGL
broken clouds at 30000 feet AGL
Weather: no significant weather observed at this time

METAR text: PTRO 152350Z 05009G15KT 15SM SCT017 SCT120 BKN300 28/22 A2999
Conditions at: PTRO (BABELTHUAP/KOROR, FM) observed 2350 UTC 15 February 2019
Temperature: 28.0°C (82°F)
Dewpoint: 22.0°C (72°F) [RH = 70%]
Pressure (altimeter): 29.99 inches Hg (1015.7 mb)
Winds: from the NE (50 degrees) at 10 MPH (9 knots; 4.6 m/s)
gusting to 17 MPH (15 knots; 7.7 m/s)
Visibility: 15 miles (24 km)
Ceiling: 30000 feet AGL
Clouds: scattered clouds at 1700 feet AGL
scattered clouds at 12000 feet AGL
broken clouds at 30000 feet AGL
Weather: no significant weather observed at this time

METAR text: PTRO 152250Z 06009G12KT 15SM FEW008 SCT016 SCT120 BKN300 26/22 A2998
Conditions at: PTRO (BABELTHUAP/KOROR, FM) observed 2250 UTC 15 February 2019
Temperature: 26.0°C (79°F)
Dewpoint: 22.0°C (72°F) [RH = 79%]
Pressure (altimeter): 29.98 inches Hg (1015.3 mb)
Winds: from the ENE (60 degrees) at 10 MPH (9 knots; 4.6 m/s)
gusting to 14 MPH (12 knots; 6.2 m/s)
Visibility: 15 miles (24 km)
Ceiling: 30000 feet AGL
Clouds: few clouds at 800 feet AGL
scattered clouds at 1600 feet AGL
scattered clouds at 12000 feet AGL
broken clouds at 30000 feet AGL
Weather: no significant weather observed at this time

METAR text: PTRO 152150Z 06009G14KT 14SM VCSH SCT016CB BKN120 BKN300 25/22 A2997 RMK VCSH SW CB ALQDS MOV W
Conditions at: PTRO (BABELTHUAP/KOROR, FM) observed 2150 UTC 15 February 2019
Temperature: 25.0°C (77°F)
Dewpoint: 22.0°C (72°F) [RH = 83%]
Pressure (altimeter): 29.97 inches Hg (1015.0 mb)
Winds: from the ENE (60 degrees) at 10 MPH (9 knots; 4.6 m/s)
gusting to 16 MPH (14 knots; 7.2 m/s)
Visibility: 14 miles (23 km)
Ceiling: 12000 feet AGL
Clouds: scattered clouds at 1600 feet AGL
broken clouds at 12000 feet AGL
broken clouds at 30000 feet AGL
Weather: VCSH  (showers in vicinity)

METAR text: PTRO 152050Z 06007G12KT 15SM BKN016 BKN300 25/22 A2994
Conditions at: PTRO (BABELTHUAP/KOROR, FM) observed 2050 UTC 15 February 2019
Temperature: 25.0°C (77°F)
Dewpoint: 22.0°C (72°F) [RH = 83%]
Pressure (altimeter): 29.94 inches Hg (1014.0 mb)
Winds: from the ENE (60 degrees) at 8 MPH (7 knots; 3.6 m/s)
gusting to 14 MPH (12 knots; 6.2 m/s)
Visibility: 15 miles (24 km)
Ceiling: 1600 feet AGL
Clouds: broken clouds at 1600 feet AGL
broken clouds at 30000 feet AGL
Weather: no significant weather observed at this time

METAR text: PTRO 151950Z 06007G17KT 14SM BKN016 BKN300 25/21 A2992
Conditions at: PTRO (BABELTHUAP/KOROR, FM) observed 1950 UTC 15 February 2019
Temperature: 25.0°C (77°F)
Dewpoint: 21.0°C (70°F) [RH = 79%]
Pressure (altimeter): 29.92 inches Hg (1013.3 mb)
Winds: from the ENE (60 degrees) at 8 MPH (7 knots; 3.6 m/s)
gusting to 20 MPH (17 knots; 8.7 m/s)
Visibility: 14 miles (23 km)
Ceiling: 1600 feet AGL
Clouds: broken clouds at 1600 feet AGL
broken clouds at 30000 feet AGL
Weather: no significant weather observed at this time

METAR text: PTRO 151850Z 06007G13KT 14SM BKN016 BKN300 25/21 A2991
Conditions at: PTRO (BABELTHUAP/KOROR, FM) observed 1850 UTC 15 February 2019
Temperature: 25.0°C (77°F)
Dewpoint: 21.0°C (70°F) [RH = 79%]
Pressure (altimeter): 29.91 inches Hg (1013.0 mb)
Winds: from the ENE (60 degrees) at 8 MPH (7 knots; 3.6 m/s)
gusting to 15 MPH (13 knots; 6.7 m/s)
Visibility: 14 miles (23 km)
Ceiling: 1600 feet AGL
Clouds: broken clouds at 1600 feet AGL
broken clouds at 30000 feet AGL
Weather: no significant weather observed at this time

METAR text: PTRO 151750Z 05009G14KT 14SM SCT016 BKN300 26/22 A2991
Conditions at: PTRO (BABELTHUAP/KOROR, FM) observed 1750 UTC 15 February 2019
Temperature: 26.0°C (79°F)
Dewpoint: 22.0°C (72°F) [RH = 79%]
Pressure (altimeter): 29.91 inches Hg (1013.0 mb)
Winds: from the NE (50 degrees) at 10 MPH (9 knots; 4.6 m/s)
gusting to 16 MPH (14 knots; 7.2 m/s)
Visibility: 14 miles (23 km)
Ceiling: 30000 feet AGL
Clouds: scattered clouds at 1600 feet AGL
broken clouds at 30000 feet AGL
Weather: no significant weather observed at this time

METAR text: PTRO 151650Z 05007G15KT 14SM SCT016 BKN300 26/22 A2992
Conditions at: PTRO (BABELTHUAP/KOROR, FM) observed 1650 UTC 15 February 2019
Temperature: 26.0°C (79°F)
Dewpoint: 22.0°C (72°F) [RH = 79%]
Pressure (altimeter): 29.92 inches Hg (1013.3 mb)
Winds: from the NE (50 degrees) at 8 MPH (7 knots; 3.6 m/s)
gusting to 17 MPH (15 knots; 7.7 m/s)
Visibility: 14 miles (23 km)
Ceiling: 30000 feet AGL
Clouds: scattered clouds at 1600 feet AGL
broken clouds at 30000 feet AGL
Weather: no significant weather observed at this time

METAR text: PTRO 151550Z 06007G14KT 14SM SCT016 BKN300 26/22 A2994
Conditions at: PTRO (BABELTHUAP/KOROR, FM) observed 1550 UTC 15 February 2019
Temperature: 26.0°C (79°F)
Dewpoint: 22.0°C (72°F) [RH = 79%]
Pressure (altimeter): 29.94 inches Hg (1014.0 mb)
Winds: from the ENE (60 degrees) at 8 MPH (7 knots; 3.6 m/s)
gusting to 16 MPH (14 knots; 7.2 m/s)
Visibility: 14 miles (23 km)
Ceiling: 30000 feet AGL
Clouds: scattered clouds at 1600 feet AGL
broken clouds at 30000 feet AGL
Weather: no significant weather observed at this time

METAR text: PTRO 151450Z 07009G14KT 14SM SCT016 BKN120 BKN300 25/22 A2994
Conditions at: PTRO (BABELTHUAP/KOROR, FM) observed 1450 UTC 15 February 2019
Temperature: 25.0°C (77°F)
Dewpoint: 22.0°C (72°F) [RH = 83%]
Pressure (altimeter): 29.94 inches Hg (1014.0 mb)
Winds: from the ENE (70 degrees) at 10 MPH (9 knots; 4.6 m/s)
gusting to 16 MPH (14 knots; 7.2 m/s)
Visibility: 14 miles (23 km)
Ceiling: 12000 feet AGL
Clouds: scattered clouds at 1600 feet AGL
broken clouds at 12000 feet AGL
broken clouds at 30000 feet AGL
Weather: no significant weather observed at this time

METAR text: PTRO 151350Z 06011G18KT 14SM SCT016 BKN120 BKN300 26/22 A2995
Conditions at: PTRO (BABELTHUAP/KOROR, FM) observed 1350 UTC 15 February 2019
Temperature: 26.0°C (79°F)
Dewpoint: 22.0°C (72°F) [RH = 79%]
Pressure (altimeter): 29.95 inches Hg (1014.3 mb)
Winds: from the ENE (60 degrees) at 13 MPH (11 knots; 5.7 m/s)
gusting to 21 MPH (18 knots; 9.3 m/s)
Visibility: 14 miles (23 km)
Ceiling: 12000 feet AGL
Clouds: scattered clouds at 1600 feet AGL
broken clouds at 12000 feet AGL
broken clouds at 30000 feet AGL
Weather: no significant weather observed at this time

METAR text: PTRO 151250Z 06011G18KT 14SM SCT016CB BKN120 BKN300 26/21 A2994 RMK CB ALQDS
Conditions at: PTRO (BABELTHUAP/KOROR, FM) observed 1250 UTC 15 February 2019
Temperature: 26.0°C (79°F)
Dewpoint: 21.0°C (70°F) [RH = 74%]
Pressure (altimeter): 29.94 inches Hg (1014.0 mb)
Winds: from the ENE (60 degrees) at 13 MPH (11 knots; 5.7 m/s)
gusting to 21 MPH (18 knots; 9.3 m/s)
Visibility: 14 miles (23 km)
Ceiling: 12000 feet AGL
Clouds: scattered clouds at 1600 feet AGL
broken clouds at 12000 feet AGL
broken clouds at 30000 feet AGL
Weather: no significant weather observed at this time

METAR text: PTRO 151150Z 07011G20KT 14SM SCT016CB BKN120 OVC300 26/21 A2994 RMK CB ALQDS
Conditions at: PTRO (BABELTHUAP/KOROR, FM) observed 1150 UTC 15 February 2019
Temperature: 26.0°C (79°F)
Dewpoint: 21.0°C (70°F) [RH = 74%]
Pressure (altimeter): 29.94 inches Hg (1014.0 mb)
Winds: from the ENE (70 degrees) at 13 MPH (11 knots; 5.7 m/s)
gusting to 23 MPH (20 knots; 10.3 m/s)
Visibility: 14 miles (23 km)
Ceiling: 12000 feet AGL
Clouds: scattered clouds at 1600 feet AGL
broken clouds at 12000 feet AGL
overcast cloud deck at 30000 feet AGL
Weather: no significant weather observed at this time

METAR text: PTRO 151050Z 06013G21KT 13SM BKN016CB BKN110 OVC290 26/22 A2994 RMK CB ALQDS
Conditions at: PTRO (BABELTHUAP/KOROR, FM) observed 1050 UTC 15 February 2019
Temperature: 26.0°C (79°F)
Dewpoint: 22.0°C (72°F) [RH = 79%]
Pressure (altimeter): 29.94 inches Hg (1014.0 mb)
Winds: from the ENE (60 degrees) at 15 MPH (13 knots; 6.7 m/s)
gusting to 24 MPH (21 knots; 10.8 m/s)
Visibility: 13 miles (21 km)
Ceiling: 1600 feet AGL
Clouds: broken clouds at 1600 feet AGL
broken clouds at 11000 feet AGL
overcast cloud deck at 29000 feet AGL
Weather: no significant weather observed at this time

METAR text: PTRO 150950Z 05010G22KT 13SM BKN016CB BKN110 OVC290 26/22 A2992 RMK CB ALQDS
Conditions at: PTRO (BABELTHUAP/KOROR, FM) observed 0950 UTC 15 February 2019
Temperature: 26.0°C (79°F)
Dewpoint: 22.0°C (72°F) [RH = 79%]
Pressure (altimeter): 29.92 inches Hg (1013.3 mb)
Winds: from the NE (50 degrees) at 12 MPH (10 knots; 5.1 m/s)
gusting to 25 MPH (22 knots; 11.3 m/s)
Visibility: 13 miles (21 km)
Ceiling: 1600 feet AGL
Clouds: broken clouds at 1600 feet AGL
broken clouds at 11000 feet AGL
overcast cloud deck at 29000 feet AGL
Weather: no significant weather observed at this time

Forecast for: PTRO (BABELTHUAP/KOROR, FM)
Text: PTRO 161724Z 1618/1718 04011KT P6SM VCSH SCT016 SCT050
Forecast period: 1800 UTC 16 February 2019 to 1800 UTC 17 February 2019
Forecast type: FROM: standard forecast or significant change
Winds: from the NE (40 degrees) at 13 MPH (11 knots; 5.7 m/s)
Visibility: 6 or more miles 10+ km)
Ceiling: at least 12,000 feet AGL
Clouds: scattered clouds at 1600 feet AGL
scattered clouds at 5000 feet AGL
Weather: VCSH  (showers in vicinity)